createdAt,value
2019-05-20T00:00:32.705Z,12.50
2019-05-20T00:03:03.044Z,12.40
2019-05-20T00:05:33.487Z,12.40
2019-05-20T00:08:08.242Z,12.40
2019-05-20T00:10:38.689Z,12.40
2019-05-20T00:13:09.156Z,12.50
2019-05-20T00:15:39.497Z,12.60
2019-05-20T00:18:09.949Z,12.50
2019-05-20T00:20:40.317Z,12.60
2019-05-20T00:23:10.608Z,12.70
2019-05-20T00:25:40.997Z,12.70
2019-05-20T00:28:11.436Z,12.70
2019-05-20T00:30:41.861Z,12.60
2019-05-20T00:33:15.249Z,12.60
2019-05-20T00:35:45.616Z,12.70
2019-05-20T00:38:17.045Z,12.80
2019-05-20T00:40:47.414Z,12.90
2019-05-20T00:43:17.877Z,13.00
2019-05-20T00:45:48.283Z,13.10
2019-05-20T00:48:18.597Z,13.20
2019-05-20T00:50:48.947Z,13.20
2019-05-20T00:53:19.294Z,13.30
2019-05-20T00:55:49.742Z,13.40
2019-05-20T00:58:20.163Z,13.50
2019-05-20T01:00:50.576Z,13.60
2019-05-20T01:03:20.995Z,13.60
2019-05-20T01:05:51.274Z,13.70
2019-05-20T01:08:21.659Z,13.70
2019-05-20T01:10:52.078Z,13.80
2019-05-20T01:13:22.539Z,13.80
2019-05-20T01:15:52.835Z,13.90
2019-05-20T01:18:23.114Z,13.90
2019-05-20T01:20:54.047Z,14.00
2019-05-20T01:23:24.464Z,14.00
2019-05-20T01:25:54.835Z,14.00
2019-05-20T01:28:25.254Z,14.00
2019-05-20T01:30:55.725Z,14.00
2019-05-20T01:33:26.078Z,14.00
2019-05-20T01:35:56.435Z,14.00
2019-05-20T01:38:27.043Z,14.10
2019-05-20T01:41:00.906Z,14.10
2019-05-20T01:43:31.271Z,14.10
2019-05-20T01:46:01.557Z,14.10
2019-05-20T01:48:31.896Z,14.10
2019-05-20T01:51:02.410Z,14.10
2019-05-20T01:53:32.870Z,14.10
2019-05-20T01:56:03.415Z,14.10
2019-05-20T01:58:33.795Z,14.10
2019-05-20T02:01:04.257Z,14.10
2019-05-20T02:03:34.673Z,14.10
2019-05-20T02:06:05.142Z,14.10
2019-05-20T02:08:35.418Z,14.10
2019-05-20T02:11:05.778Z,14.20
2019-05-20T02:13:54.949Z,14.10
2019-05-20T02:16:25.623Z,14.10
2019-05-20T02:18:56.026Z,14.10
2019-05-20T02:21:26.465Z,14.20
2019-05-20T02:23:56.803Z,14.20
2019-05-20T02:26:27.252Z,14.20
2019-05-20T02:28:57.680Z,14.20
2019-05-20T02:31:28.056Z,14.30
2019-05-20T02:33:59.455Z,14.20
2019-05-20T02:36:29.905Z,14.20
2019-05-20T02:39:00.373Z,14.10
2019-05-20T02:41:30.849Z,14.10
2019-05-20T02:44:01.249Z,14.10
2019-05-20T02:46:32.207Z,14.10
2019-05-20T02:49:02.644Z,14.10
2019-05-20T02:51:33.193Z,14.20
2019-05-20T02:54:03.638Z,14.20
2019-05-20T02:56:34.068Z,14.10
2019-05-20T02:59:05.399Z,14.10
2019-05-20T03:01:35.753Z,14.10
2019-05-20T03:04:12.163Z,14.10
2019-05-20T03:06:38.795Z,14.10
2019-05-20T03:09:12.163Z,14.10
2019-05-20T03:11:41.199Z,14.10
2019-05-20T03:14:11.571Z,14.10
2019-05-20T03:16:41.863Z,14.10
2019-05-20T03:19:12.333Z,14.10
2019-05-20T03:21:42.700Z,14.10
2019-05-20T03:24:13.057Z,14.10
2019-05-20T03:26:43.481Z,14.10
2019-05-20T03:29:13.922Z,14.10
2019-05-20T03:31:44.338Z,14.10
2019-05-20T03:34:42.265Z,14.10
2019-05-20T03:36:46.919Z,14.00
2019-05-20T03:39:17.352Z,14.00
2019-05-20T03:41:47.796Z,14.00
2019-05-20T03:44:18.286Z,14.00
2019-05-20T03:46:48.634Z,14.00
2019-05-20T03:49:18.988Z,13.90
2019-05-20T03:51:52.433Z,14.00
2019-05-20T03:54:21.413Z,14.00
2019-05-20T03:56:51.818Z,14.10
2019-05-20T03:59:22.206Z,14.10
2019-05-20T04:01:52.648Z,14.10
2019-05-20T04:04:25.181Z,14.10
2019-05-20T04:06:55.126Z,14.10
2019-05-20T04:09:25.532Z,14.10
2019-05-20T04:11:55.920Z,14.10
2019-05-20T04:14:26.215Z,14.10
2019-05-20T04:16:56.651Z,14.10
2019-05-20T04:19:27.016Z,14.10
2019-05-20T04:21:57.371Z,14.10
2019-05-20T04:24:27.828Z,14.20
2019-05-20T04:27:00.306Z,14.20
2019-05-20T04:29:30.759Z,14.20
2019-05-20T04:32:01.534Z,14.20
2019-05-20T04:34:32.878Z,14.30
2019-05-20T04:37:03.274Z,14.30
2019-05-20T04:39:33.626Z,14.40
2019-05-20T04:42:06.522Z,14.40
2019-05-20T04:44:36.129Z,14.50
2019-05-20T04:47:06.492Z,14.60
2019-05-20T04:49:36.967Z,14.60
2019-05-20T04:52:07.335Z,14.60
2019-05-20T04:54:37.667Z,14.70
2019-05-20T04:57:08.042Z,14.70
2019-05-20T04:59:38.400Z,14.60
2019-05-20T05:02:08.684Z,14.60
2019-05-20T05:04:39.124Z,14.60
2019-05-20T05:07:09.567Z,14.60
2019-05-20T05:09:40.912Z,14.60
2019-05-20T05:12:11.401Z,14.60
2019-05-20T05:14:41.727Z,14.40
2019-05-20T05:17:12.361Z,14.50
2019-05-20T05:19:42.724Z,14.50
2019-05-20T05:22:13.152Z,14.40
2019-05-20T05:24:43.828Z,14.50
2019-05-20T05:27:14.527Z,14.50
2019-05-20T05:29:44.960Z,14.50
2019-05-20T05:32:17.496Z,14.50
2019-05-20T05:34:47.899Z,14.50
2019-05-20T05:37:18.296Z,14.40
2019-05-20T05:39:48.972Z,14.50
2019-05-20T05:42:19.302Z,14.60
2019-05-20T05:44:49.652Z,14.60
2019-05-20T05:47:20.038Z,14.60
2019-05-20T05:49:50.500Z,14.70
2019-05-20T05:52:22.883Z,14.70
2019-05-20T05:54:52.916Z,14.80
2019-05-20T05:57:23.288Z,14.80
2019-05-20T05:59:53.654Z,14.80
2019-05-20T06:02:24.085Z,14.80
2019-05-20T06:04:54.530Z,14.80
2019-05-20T06:07:24.909Z,14.70
2019-05-20T06:09:55.244Z,14.70
2019-05-20T06:12:25.632Z,14.70
2019-05-20T06:14:56.058Z,14.60
2019-05-20T06:17:26.427Z,14.50
2019-05-20T06:19:56.787Z,14.50
2019-05-20T06:22:27.252Z,14.50
2019-05-20T06:24:57.680Z,14.60
2019-05-20T06:27:28.139Z,14.70
2019-05-20T06:29:58.811Z,14.80
2019-05-20T06:32:29.377Z,14.70
2019-05-20T06:34:59.792Z,14.70
2019-05-20T06:37:32.126Z,14.70
2019-05-20T06:40:03.239Z,14.70
2019-05-20T06:42:33.650Z,14.70
2019-05-20T06:45:04.464Z,14.60
2019-05-20T06:47:34.760Z,14.70
2019-05-20T06:50:06.317Z,14.80
2019-05-20T06:52:36.757Z,14.80
2019-05-20T06:55:08.295Z,14.90
2019-05-20T06:57:38.740Z,15.00
2019-05-20T07:00:10.396Z,15.10
2019-05-20T07:02:40.939Z,15.10
2019-05-20T07:05:11.579Z,15.20
2019-05-20T07:07:43.012Z,15.20
2019-05-20T07:10:13.448Z,15.30
2019-05-20T07:12:43.764Z,15.30
2019-05-20T07:15:14.204Z,15.30
2019-05-20T07:17:44.589Z,15.30
2019-05-20T07:20:15.017Z,15.40
2019-05-20T07:22:55.783Z,15.40
2019-05-20T07:25:17.741Z,15.40
2019-05-20T07:27:48.240Z,15.40
2019-05-20T07:30:19.512Z,15.40
2019-05-20T07:32:50.122Z,15.60
2019-05-20T07:35:30.241Z,15.60
2019-05-20T07:37:53.002Z,15.70
2019-05-20T07:40:48.412Z,15.70
2019-05-20T07:43:18.790Z,15.70
2019-05-20T07:45:49.646Z,15.80
2019-05-20T07:48:20.328Z,15.80
2019-05-20T07:50:50.887Z,15.60
2019-05-20T07:53:21.411Z,15.60
2019-05-20T07:56:11.821Z,15.80
2019-05-20T07:58:46.724Z,15.90
2019-05-20T08:01:17.217Z,15.90
2019-05-20T08:03:47.685Z,15.90
2019-05-20T08:06:19.099Z,16.00
2019-05-20T08:08:50.630Z,16.00
2019-05-20T08:11:21.063Z,16.10
2019-05-20T08:13:51.533Z,16.00
2019-05-20T08:16:21.978Z,16.00
2019-05-20T08:18:52.496Z,15.90
2019-05-20T08:21:22.918Z,15.80
2019-05-20T08:23:53.338Z,16.00
2019-05-20T08:26:23.798Z,15.90
2019-05-20T08:28:54.403Z,16.00
2019-05-20T08:31:24.931Z,15.90
2019-05-20T08:33:55.725Z,15.90
2019-05-20T08:36:26.455Z,15.90
2019-05-20T08:38:56.751Z,15.90
2019-05-20T08:41:27.785Z,15.90
2019-05-20T08:43:58.186Z,15.90
2019-05-20T08:46:28.623Z,16.00
2019-05-20T08:48:59.472Z,16.00
2019-05-20T08:51:29.824Z,16.10
2019-05-20T08:54:00.243Z,16.10
2019-05-20T08:56:30.817Z,16.00
2019-05-20T08:59:01.235Z,16.10
2019-05-20T09:01:31.580Z,16.20
2019-05-20T09:04:01.882Z,16.20
2019-05-20T09:06:32.260Z,16.20
2019-05-20T09:09:02.759Z,16.20
2019-05-20T09:11:33.305Z,16.20
2019-05-20T09:14:05.088Z,16.30
2019-05-20T09:16:35.476Z,16.20
2019-05-20T09:19:05.943Z,16.30
2019-05-20T09:21:36.313Z,16.20
2019-05-20T09:24:06.671Z,16.20
2019-05-20T09:26:37.119Z,16.20
2019-05-20T09:29:11.304Z,16.20
2019-05-20T09:31:40.039Z,16.20
2019-05-20T09:34:10.516Z,16.20
2019-05-20T09:36:40.989Z,16.30
2019-05-20T09:39:11.344Z,16.30
2019-05-20T09:41:41.796Z,16.40
2019-05-20T09:44:12.087Z,16.50
2019-05-20T09:46:42.732Z,16.50
2019-05-20T09:49:13.290Z,16.50
2019-05-20T09:51:44.105Z,16.60
2019-05-20T09:54:14.467Z,16.70
2019-05-20T09:56:44.967Z,16.70
2019-05-20T09:59:16.421Z,16.70
2019-05-20T10:01:46.993Z,16.80
2019-05-20T10:04:17.337Z,16.90
2019-05-20T10:06:47.784Z,17.00
2019-05-20T10:09:18.248Z,17.10
2019-05-20T10:11:48.634Z,17.20
2019-05-20T10:14:19.045Z,17.30
2019-05-20T10:16:49.507Z,17.30
2019-05-20T10:19:19.925Z,17.40
2019-05-20T10:21:50.376Z,17.30
2019-05-20T10:24:20.735Z,17.40
2019-05-20T10:26:51.229Z,17.30
2019-05-20T10:29:21.624Z,17.30
2019-05-20T10:31:52.017Z,17.30
2019-05-20T10:34:22.346Z,17.40
2019-05-20T10:36:52.703Z,17.50
2019-05-20T10:39:23.008Z,17.60
2019-05-20T10:41:53.367Z,17.50
2019-05-20T10:44:23.674Z,17.50
2019-05-20T10:46:54.079Z,17.60
2019-05-20T10:49:24.467Z,17.60
2019-05-20T10:51:55.452Z,17.60
2019-05-20T10:54:25.911Z,17.60
2019-05-20T10:56:59.556Z,17.60
2019-05-20T10:59:28.439Z,17.70
2019-05-20T11:01:58.829Z,17.60
2019-05-20T11:04:29.287Z,17.60
2019-05-20T11:06:59.725Z,17.60
2019-05-20T11:09:30.158Z,17.50
2019-05-20T11:12:00.537Z,17.40
2019-05-20T11:14:30.954Z,17.50
2019-05-20T11:17:01.228Z,17.60
2019-05-20T11:19:31.830Z,17.50
2019-05-20T11:22:02.138Z,17.50
2019-05-20T11:24:32.586Z,17.50
2019-05-20T11:27:02.883Z,17.60
2019-05-20T11:29:34.831Z,17.70
2019-05-20T11:32:05.364Z,17.80
2019-05-20T11:34:35.816Z,17.80
2019-05-20T11:37:06.382Z,17.80
2019-05-20T11:39:36.783Z,17.70
2019-05-20T11:42:07.155Z,17.80
2019-05-20T11:44:37.528Z,17.90
2019-05-20T11:47:07.996Z,17.90
2019-05-20T11:49:38.306Z,17.90
2019-05-20T11:52:08.733Z,18.00
2019-05-20T11:54:39.067Z,18.00
2019-05-20T11:57:09.514Z,17.90
2019-05-20T11:59:39.826Z,17.80
2019-05-20T12:02:10.422Z,17.80
2019-05-20T12:04:40.853Z,17.90
2019-05-20T12:07:11.307Z,17.90
2019-05-20T12:09:49.807Z,17.90
2019-05-20T12:12:13.686Z,17.90
2019-05-20T12:14:43.979Z,17.80
2019-05-20T12:17:14.468Z,17.70
2019-05-20T12:19:44.894Z,17.80
2019-05-20T12:22:15.195Z,17.70
2019-05-20T12:24:45.559Z,17.80
2019-05-20T12:27:15.839Z,17.70
2019-05-20T12:29:46.218Z,17.80
2019-05-20T12:32:16.516Z,17.80
2019-05-20T12:34:47.671Z,17.80
2019-05-20T12:37:18.261Z,17.70
2019-05-20T12:40:05.535Z,17.70
2019-05-20T12:42:20.791Z,17.70
2019-05-20T12:44:51.227Z,17.60
2019-05-20T12:47:21.631Z,17.70
2019-05-20T12:49:52.872Z,17.70
2019-05-20T12:52:23.303Z,17.60
2019-05-20T12:55:06.674Z,17.60
2019-05-20T12:57:25.927Z,17.60
2019-05-20T12:59:56.358Z,17.50
2019-05-20T13:02:27.626Z,17.40
2019-05-20T13:04:57.982Z,17.50
2019-05-20T13:07:28.427Z,17.50
2019-05-20T13:10:02.834Z,17.50
2019-05-20T13:12:30.827Z,17.50
2019-05-20T13:15:01.123Z,17.50
2019-05-20T13:17:31.530Z,17.60
2019-05-20T13:20:04.300Z,17.60
2019-05-20T13:22:34.734Z,17.70
2019-05-20T13:25:05.461Z,17.70
2019-05-20T13:27:35.832Z,17.80
2019-05-20T13:30:06.400Z,17.90
2019-05-20T13:32:36.937Z,18.10
2019-05-20T13:35:07.918Z,18.10
2019-05-20T13:37:38.271Z,18.20
2019-05-20T13:40:09.097Z,18.10
2019-05-20T13:42:39.546Z,17.90
2019-05-20T13:45:10.127Z,17.80
2019-05-20T13:47:41.447Z,17.70
2019-05-20T13:50:12.007Z,17.70
2019-05-20T13:52:42.357Z,17.60
2019-05-20T13:55:13.064Z,17.60
2019-05-20T13:57:44.488Z,17.60
2019-05-20T14:00:16.618Z,17.50
2019-05-20T14:02:47.004Z,17.50
2019-05-20T14:05:17.631Z,17.30
2019-05-20T14:07:48.004Z,17.30
2019-05-20T14:10:18.457Z,17.30
2019-05-20T14:12:48.924Z,17.30
2019-05-20T14:15:19.409Z,17.30
2019-05-20T14:17:49.843Z,17.30
2019-05-20T14:20:20.415Z,17.30
2019-05-20T14:22:50.859Z,17.30
2019-05-20T14:25:21.393Z,17.40
2019-05-20T14:27:51.988Z,17.40
2019-05-20T14:30:22.734Z,17.40
2019-05-20T14:32:53.127Z,17.30
2019-05-20T14:35:23.550Z,17.30
2019-05-20T14:37:53.935Z,17.40
2019-05-20T14:40:24.374Z,17.50
2019-05-20T14:42:54.786Z,17.50
2019-05-20T14:45:25.245Z,17.50
2019-05-20T14:47:55.677Z,17.60
2019-05-20T14:50:26.073Z,17.60
2019-05-20T14:52:56.521Z,17.60
2019-05-20T14:55:26.998Z,17.50
2019-05-20T14:57:57.505Z,17.50
2019-05-20T15:00:27.935Z,17.60
2019-05-20T15:02:58.254Z,17.60
2019-05-20T15:05:28.661Z,17.70
2019-05-20T15:07:58.998Z,17.70
2019-05-20T15:10:29.373Z,17.70
2019-05-20T15:12:59.637Z,17.70
2019-05-20T15:15:30.256Z,17.70
2019-05-20T15:18:00.701Z,17.70
2019-05-20T15:20:31.961Z,17.60
2019-05-20T15:23:02.363Z,17.60
2019-05-20T15:25:32.812Z,17.80
2019-05-20T15:28:03.521Z,17.70
2019-05-20T15:30:33.947Z,17.80
2019-05-20T15:33:04.496Z,17.70
2019-05-20T15:35:35.044Z,17.80
2019-05-20T15:38:05.416Z,17.80
2019-05-20T15:40:35.768Z,17.80
2019-05-20T15:43:06.146Z,17.80
2019-05-20T15:45:36.500Z,17.80
2019-05-20T15:48:07.042Z,17.60
2019-05-20T15:50:37.389Z,17.70
2019-05-20T15:53:11.296Z,17.60
2019-05-20T15:55:39.992Z,17.70
2019-05-20T15:58:10.476Z,17.60
2019-05-20T16:00:40.883Z,17.60
2019-05-20T16:03:11.175Z,17.60
2019-05-20T16:05:41.555Z,17.70
2019-05-20T16:08:11.952Z,17.70
2019-05-20T16:10:42.406Z,17.60
2019-05-20T16:13:12.751Z,17.50
2019-05-20T16:15:43.127Z,17.60
2019-05-20T16:18:13.690Z,17.50
2019-05-20T16:20:44.109Z,17.40
2019-05-20T16:23:17.680Z,17.50
2019-05-20T16:25:48.428Z,17.50
2019-05-20T16:28:18.894Z,17.50
2019-05-20T16:30:49.375Z,17.40
2019-05-20T16:33:19.913Z,17.40
2019-05-20T16:35:50.351Z,17.40
2019-05-20T16:38:20.776Z,17.40
2019-05-20T16:40:51.183Z,17.50
2019-05-20T16:43:21.639Z,17.50
2019-05-20T16:45:52.104Z,17.40
2019-05-20T16:48:22.572Z,17.40
2019-05-20T16:50:53.006Z,17.30
2019-05-20T16:53:23.428Z,17.30
2019-05-20T16:55:53.807Z,17.40
2019-05-20T16:58:24.346Z,17.40
2019-05-20T17:00:54.717Z,17.30
2019-05-20T17:03:25.177Z,17.40
2019-05-20T17:05:56.545Z,17.50
2019-05-20T17:08:26.953Z,17.40
2019-05-20T17:10:57.305Z,17.40
2019-05-20T17:13:27.798Z,17.30
2019-05-20T17:15:58.196Z,17.20
2019-05-20T17:18:28.581Z,17.20
2019-05-20T17:20:59.035Z,17.20
2019-05-20T17:23:29.850Z,17.10
2019-05-20T17:26:00.239Z,17.10
2019-05-20T17:28:30.655Z,17.20
2019-05-20T17:31:01.130Z,17.20
2019-05-20T17:33:31.491Z,17.10
2019-05-20T17:36:02.265Z,17.00
2019-05-20T17:38:32.712Z,17.00
2019-05-20T17:41:03.102Z,17.00
2019-05-20T17:43:33.634Z,16.90
2019-05-20T17:46:05.182Z,16.90
2019-05-20T17:48:35.937Z,16.80
2019-05-20T17:51:06.592Z,16.80
2019-05-20T17:53:36.969Z,16.70
2019-05-20T17:56:07.498Z,16.70
2019-05-20T17:58:37.864Z,16.60
2019-05-20T18:01:15.360Z,16.60
2019-05-20T18:03:40.321Z,16.50
2019-05-20T18:06:10.673Z,16.40
2019-05-20T18:08:44.874Z,16.30
2019-05-20T18:11:15.315Z,16.30
2019-05-20T18:13:45.764Z,16.20
2019-05-20T18:16:16.286Z,16.20
2019-05-20T18:18:46.596Z,16.20
2019-05-20T18:21:17.052Z,16.30
2019-05-20T18:23:47.499Z,16.20
2019-05-20T18:26:17.916Z,16.20
2019-05-20T18:28:48.611Z,16.20
2019-05-20T18:31:31.888Z,16.20
2019-05-20T18:33:51.232Z,16.20
2019-05-20T18:36:21.647Z,16.20
2019-05-20T18:38:51.960Z,16.10
2019-05-20T18:41:22.475Z,16.10
2019-05-20T18:43:52.787Z,16.00
2019-05-20T18:46:23.168Z,16.10
2019-05-20T18:48:53.528Z,16.10
2019-05-20T18:51:23.940Z,16.10
2019-05-20T18:53:54.415Z,16.10
2019-05-20T18:56:24.813Z,16.10
2019-05-20T18:58:55.240Z,16.10
2019-05-20T19:01:25.643Z,16.00
2019-05-20T19:03:56.116Z,16.00
2019-05-20T19:06:26.594Z,15.90
2019-05-20T19:08:56.946Z,15.90
2019-05-20T19:11:27.387Z,15.80
2019-05-20T19:13:57.759Z,15.80
2019-05-20T19:16:28.212Z,15.80
2019-05-20T19:18:58.763Z,15.80
2019-05-20T19:21:29.251Z,15.80
2019-05-20T19:23:59.720Z,15.60
2019-05-20T19:26:30.274Z,15.60
2019-05-20T19:29:02.101Z,15.60
2019-05-20T19:31:32.491Z,15.50
2019-05-20T19:34:02.857Z,15.50
2019-05-20T19:36:33.279Z,15.50
2019-05-20T19:39:06.539Z,15.50
2019-05-20T19:41:38.566Z,15.50
2019-05-20T19:44:13.206Z,15.40
2019-05-20T19:46:42.226Z,15.30
2019-05-20T19:49:13.562Z,15.30
2019-05-20T19:51:44.026Z,15.30
2019-05-20T19:54:14.414Z,15.40
2019-05-20T19:56:44.829Z,15.40
2019-05-20T19:59:15.281Z,15.40
2019-05-20T20:01:45.725Z,15.40
2019-05-20T20:04:16.109Z,15.40
2019-05-20T20:06:46.413Z,15.50
2019-05-20T20:09:16.773Z,15.40
2019-05-20T20:11:47.138Z,15.40
2019-05-20T20:14:17.502Z,15.40
2019-05-20T20:16:49.450Z,15.30
2019-05-20T20:19:19.831Z,15.30
2019-05-20T20:21:50.110Z,15.30
2019-05-20T20:24:20.526Z,15.30
2019-05-20T20:26:50.841Z,15.20
2019-05-20T20:29:21.113Z,15.20
2019-05-20T20:31:51.578Z,15.10
2019-05-20T20:34:21.931Z,15.20
2019-05-20T20:36:52.350Z,15.10
2019-05-20T20:39:22.701Z,15.20
2019-05-20T20:41:53.102Z,15.10
2019-05-20T20:44:23.548Z,15.10
2019-05-20T20:46:53.912Z,15.10
2019-05-20T20:49:24.215Z,15.10
2019-05-20T20:51:54.578Z,15.10
2019-05-20T20:54:24.848Z,15.00
2019-05-20T20:56:55.578Z,15.00
2019-05-20T20:59:25.858Z,15.00
2019-05-20T21:01:59.069Z,14.90
2019-05-20T21:04:28.304Z,14.80
2019-05-20T21:06:59.725Z,14.90
2019-05-20T21:09:30.022Z,14.90
2019-05-20T21:12:00.374Z,14.90
2019-05-20T21:14:31.170Z,14.90
2019-05-20T21:17:03.372Z,15.00
2019-05-20T21:19:33.729Z,14.90
2019-05-20T21:22:04.100Z,15.00
2019-05-20T21:24:35.411Z,14.90
2019-05-20T21:27:05.932Z,14.90
2019-05-20T21:29:36.213Z,14.90
2019-05-20T21:32:06.573Z,14.90
2019-05-20T21:34:36.941Z,14.80
2019-05-20T21:37:07.394Z,14.80
2019-05-20T21:39:37.766Z,14.80
2019-05-20T21:42:08.095Z,14.70
2019-05-20T21:44:38.521Z,14.70
2019-05-20T21:47:16.287Z,14.60
2019-05-20T21:49:46.629Z,14.50
2019-05-20T21:52:16.990Z,14.50
2019-05-20T21:54:47.376Z,14.50
2019-05-20T21:57:17.642Z,14.50
2019-05-20T21:59:47.915Z,14.40
2019-05-20T22:02:18.340Z,14.30
2019-05-20T22:04:48.798Z,14.30
2019-05-20T22:07:19.379Z,14.20
2019-05-20T22:09:50.426Z,14.10
2019-05-20T22:12:21.015Z,14.10
2019-05-20T22:14:51.575Z,14.10
2019-05-20T22:17:22.080Z,14.00
2019-05-20T22:19:52.456Z,14.00
2019-05-20T22:22:31.692Z,14.00
2019-05-20T22:25:03.123Z,14.00
2019-05-20T22:27:34.461Z,13.90
2019-05-20T22:30:05.453Z,13.90
2019-05-20T22:32:35.797Z,13.90
2019-05-20T22:35:06.508Z,13.90
2019-05-20T22:37:36.937Z,13.90
2019-05-20T22:40:08.421Z,13.90
2019-05-20T22:42:38.761Z,13.90
2019-05-20T22:45:09.296Z,14.00
2019-05-20T22:47:40.495Z,13.90
2019-05-20T22:50:11.049Z,13.80
2019-05-20T22:52:41.488Z,13.80
2019-05-20T22:55:11.888Z,13.80
2019-05-20T22:57:42.264Z,13.70
2019-05-20T23:00:13.013Z,13.80
2019-05-20T23:02:43.494Z,13.80
2019-05-20T23:05:13.905Z,13.70
2019-05-20T23:07:44.294Z,13.70
2019-05-20T23:10:15.362Z,13.60
2019-05-20T23:12:45.671Z,13.70
2019-05-20T23:15:16.513Z,13.70
2019-05-20T23:17:46.952Z,13.60
2019-05-20T23:20:17.392Z,13.50
2019-05-20T23:22:47.847Z,13.60
2019-05-20T23:25:18.117Z,13.60
2019-05-20T23:27:48.475Z,13.60
2019-05-20T23:30:18.888Z,13.60
2019-05-20T23:32:49.175Z,13.60
2019-05-20T23:35:19.618Z,13.50
2019-05-20T23:37:49.982Z,13.60
2019-05-20T23:40:21.419Z,13.60
2019-05-20T23:42:51.848Z,13.50
2019-05-20T23:45:22.284Z,13.50
2019-05-20T23:47:52.671Z,13.50
2019-05-20T23:50:23.059Z,13.50
2019-05-20T23:52:53.512Z,13.50
2019-05-20T23:55:23.884Z,13.50
2019-05-20T23:57:54.276Z,13.60
